world map with SDK marked

SDK - Airport

This information may not be accurate or current and is not valid for navigation or flight planning. No warranty of fitness for any purpose is made or implied.

flag of Sabahflag of Malaysia

Donate via PayPal

Additional information is available on the NEW Great Circle Mapper

Location
City:  Sandakan, Sabah, Malaysia
ICAO / IATA:WBKS / SDK

Details
Type:Airport (Aerodrome, Airfield)
Use:Public/Civil
Latitude:5°54'03"N (5.900897)
Longitude:118°03'34"E (118.059486)
Datum:WGS 1984
Elevation:46 ft (14 m)
Runways:1
Longest:7000 × 151 ft (2134 × 46 m)

Time
Timezone:UTC+8 (DST+10)
Local Time:

Weather
METAR:WBKS  200700Z VRB05KT 9999 FEW016 SCT050 BKN280 30/25 Q1008
TAF:WBKS  200500Z 2006/2106 35006KT 9999 FEW015 TEMPO 2008/2012 5000 RA FEW010 FEW015CB SCT035

Related Locations
Nearby:
Farthest:MNX: 12405 mi / 19963 km
Manicoré, AM, BR

Find:

   beyond  
but within

Other Information
Maps:
Sources:

  


 


Great Circle Mapper   Great Circle Mapper
Great Circle Mapper FAQ   Great Circle Mapper FAQ
  Karl's Home Page
KLS˛   KLS˛ Home
   GC on Facebook
Airlines of the World   Airlines of the World
Donate via PayPal


Copyright © 2004-2018, Karl L. Swartz. All rights reserved.
All trademarks mentioned herein belong to their respective owners.

Please see credits for attribution and copyright information.

Karl Swartz <karl@kls2.com>
  Powered by FreeBSD
Valid HTML 4.01!
Labeled with ICRA
hCard Microformat
Geo Microformat